Time;durP1;ratioP1;P1;durP2;ratioP2;P2;SDS_P1;SDS_P2;PMS_P1;PMS_P2;Temp;Humidity;BMP_temperature;BMP_pressure;BME280_temperature;BME280_humidity;BME280_pressure;Samples;Min_cycle;Max_cycle;Signal;HPM_P1;HPM_P2
2022/05/18 00:01:43;;;;;;;;;8.00;7.25;;;;;24.47;54.17;101609.22;4994819;28;49683;-69
2022/05/18 00:04:09;;;;;;;;;8.50;7.00;;;;;24.38;54.47;101605.88;4994392;28;49646;-66
2022/05/18 00:06:34;;;;;;;;;6.75;5.75;;;;;24.34;54.91;101618.50;4994743;28;49876;-66
2022/05/18 00:08:59;;;;;;;;;4.75;4.00;;;;;24.14;55.29;101596.56;4994540;28;50565;-66
2022/05/18 00:11:25;;;;;;;;;8.00;7.50;;;;;24.24;55.37;101622.25;4994596;28;49682;-70
2022/05/18 00:13:52;;;;;;;;;5.75;5.75;;;;;24.17;55.93;101629.56;4994829;28;49649;-66
2022/05/18 00:16:20;;;;;;;;;6.25;5.50;;;;;23.97;55.92;101608.53;4994656;28;49900;-65
2022/05/18 00:18:45;;;;;;;;;7.00;6.75;;;;;23.89;56.74;101607.78;4994207;28;50628;-67
2022/05/18 00:21:11;;;;;;;;;6.50;6.50;;;;;23.97;57.11;101629.97;4994091;28;49867;-65
2022/05/18 00:23:37;;;;;;;;;8.00;7.75;;;;;23.77;58.18;101623.25;4994353;28;49841;-66
2022/05/18 00:26:03;;;;;;;;;7.50;7.50;;;;;23.64;58.48;101598.47;4994412;28;49830;-66
2022/05/18 00:28:30;;;;;;;;;8.75;8.00;;;;;23.81;58.82;101639.25;4994116;28;52061;-66
2022/05/18 00:30:57;;;;;;;;;7.00;7.00;;;;;23.70;60.05;101647.50;4994212;28;49804;-65
2022/05/18 00:33:22;;;;;;;;;9.50;8.50;;;;;23.47;60.70;101622.91;4994084;28;49816;-69
2022/05/18 00:35:48;;;;;;;;;9.00;7.75;;;;;23.56;61.84;101649.53;4994222;28;49803;-67
2022/05/18 00:38:13;;;;;;;;;8.00;7.00;;;;;23.47;62.77;101638.13;4994059;28;50252;-69
2022/05/18 00:40:43;;;;;;;;;9.25;9.25;;;;;22.86;63.69;101557.03;4994290;28;49658;-66
2022/05/18 00:43:17;;;;;;;;;7.25;7.25;;;;;23.36;63.91;101643.66;4994234;28;49757;-65
2022/05/18 00:45:43;;;;;;;;;7.00;7.00;;;;;23.28;65.20;101651.84;4988744;28;49871;-68
2022/05/18 00:48:08;;;;;;;;;5.25;5.25;;;;;23.20;64.93;101655.56;4993872;28;49690;-68
2022/05/18 00:50:36;;;;;;;;;10.75;7.25;;;;;23.24;65.05;101665.28;4993308;28;49821;-66
2022/05/18 00:53:15;;;;;;;;;6.25;5.25;;;;;23.15;65.76;101666.34;4988078;28;49906;-65
2022/05/18 00:55:44;;;;;;;;;7.75;6.75;;;;;23.12;65.48;101669.97;4989329;28;49666;-65
2022/05/18 00:58:17;;;;;;;;;7.50;6.00;;;;;22.97;65.78;101659.50;4993492;28;50718;-67
2022/05/18 01:00:42;;;;;;;;;6.25;5.50;;;;;22.93;66.52;101670.28;4993838;28;49608;-65
2022/05/18 01:03:14;;;;;;;;;7.25;6.25;;;;;22.82;66.91;101676.66;4993667;28;49870;-65
2022/05/18 01:05:43;;;;;;;;;6.00;6.00;;;;;22.78;66.96;101680.31;4993478;28;49924;-66
2022/05/18 01:08:13;;;;;;;;;6.25;5.00;;;;;22.68;67.28;101680.44;4993548;28;49721;-67
2022/05/18 01:10:39;;;;;;;;;12.00;8.50;;;;;22.61;67.72;101673.44;4993511;28;49705;-67
2022/05/18 01:13:04;;;;;;;;;10.00;9.00;;;;;22.62;68.09;101685.91;4993632;28;49928;-70
2022/05/18 01:15:32;;;;;;;;;6.25;6.00;;;;;22.57;68.05;101683.25;4993808;28;49657;-66
2022/05/18 01:17:58;;;;;;;;;8.00;7.50;;;;;22.59;68.61;101689.50;4993424;28;50452;-65
2022/05/18 01:20:28;;;;;;;;;6.75;6.75;;;;;22.52;69.14;101698.53;4993429;28;49787;-69
2022/05/18 01:23:17;;;;;;;;;9.25;8.25;;;;;22.43;69.11;101695.97;4993589;28;50087;-68
2022/05/18 01:26:13;;;;;;;;;8.00;8.00;;;;;22.33;69.13;101705.03;4993723;28;49531;-66
2022/05/18 01:28:42;;;;;;;;;8.50;7.50;;;;;22.25;70.02;101705.09;4993106;28;49834;-67
2022/05/18 01:31:08;;;;;;;;;9.75;9.00;;;;;22.20;70.33;101693.59;4993356;28;49765;-65
2022/05/18 01:33:35;;;;;;;;;7.25;7.25;;;;;22.14;70.59;101693.66;4993330;28;49816;-69
2022/05/18 01:36:01;;;;;;;;;7.25;7.00;;;;;22.05;70.99;101699.97;4993090;28;49672;-66
2022/05/18 01:38:26;;;;;;;;;7.00;7.00;;;;;21.95;71.38;101696.50;4993411;28;49647;-65
2022/05/18 01:40:58;;;;;;;;;5.00;5.00;;;;;21.99;71.07;101711.59;4993307;28;49527;-65
2022/05/18 01:43:36;;;;;;;;;4.25;4.25;;;;;21.95;71.50;101711.66;4993464;28;49820;-69
2022/05/18 01:46:05;;;;;;;;;8.50;7.50;;;;;21.84;71.91;101692.19;4993286;28;49882;-65
2022/05/18 01:48:34;;;;;;;;;6.25;6.25;;;;;21.73;72.22;101700.34;4993147;28;49841;-65
2022/05/18 01:51:01;;;;;;;;;5.25;5.25;;;;;21.75;72.50;101714.56;4992883;28;49520;-66
2022/05/18 01:53:28;;;;;;;;;9.00;8.00;;;;;21.65;72.68;101711.09;4993364;28;49655;-66
2022/05/18 01:55:54;;;;;;;;;8.25;7.25;;;;;21.67;73.00;101709.28;4993522;28;49863;-68
2022/05/18 01:58:21;;;;;;;;;9.50;7.25;;;;;21.62;72.83;101716.47;4992354;28;49816;-67
2022/05/18 02:00:48;;;;;;;;;6.25;6.25;;;;;21.60;72.80;101731.63;4993013;28;49583;-67
2022/05/18 02:03:14;;;;;;;;;6.00;6.00;;;;;21.54;72.84;101726.34;4995957;28;49922;-67
2022/05/18 02:05:40;;;;;;;;;7.50;7.50;;;;;21.52;73.00;101732.56;4996347;28;49834;-65
2022/05/18 02:08:06;;;;;;;;;7.50;7.50;;;;;21.48;73.29;101736.19;4996375;28;50388;-67
2022/05/18 02:10:33;;;;;;;;;5.00;4.00;;;;;21.38;73.34;101722.03;4996454;28;49753;-65
2022/05/18 02:12:58;;;;;;;;;7.25;6.00;;;;;21.44;73.24;101746.03;4978797;28;49950;-66
2022/05/18 02:15:23;;;;;;;;;7.75;7.25;;;;;21.29;73.77;101748.81;4996448;28;49828;-65
2022/05/18 02:17:51;;;;;;;;;5.25;5.25;;;;;21.25;73.63;101745.25;4996180;28;50412;-67
2022/05/18 02:20:17;;;;;;;;;7.25;6.25;;;;;21.21;73.86;101739.94;4995921;28;49903;-65
2022/05/18 02:22:42;;;;;;;;;6.00;6.00;;;;;21.16;73.60;101742.66;4996111;28;49955;-65
2022/05/18 02:25:08;;;;;;;;;6.50;5.75;;;;;21.12;73.70;101748.88;4996549;28;49849;-65
2022/05/18 02:27:34;;;;;;;;;6.00;6.00;;;;;21.11;74.01;101753.34;4995958;28;50448;-66
2022/05/18 02:30:00;;;;;;;;;5.25;5.25;;;;;21.05;73.54;101761.41;4996182;28;49656;-65
2022/05/18 02:32:26;;;;;;;;;5.00;5.00;;;;;20.97;73.85;101765.91;4996213;28;49687;-68
2022/05/18 02:34:51;;;;;;;;;6.00;4.75;;;;;20.52;74.05;101695.91;4995914;28;49688;-65
2022/05/18 02:37:17;;;;;;;;;5.75;4.75;;;;;20.63;73.59;101746.53;4995864;28;50384;-66
2022/05/18 02:39:43;;;;;;;;;6.25;5.25;;;;;20.30;73.57;101704.88;4995931;28;49634;-65
2022/05/18 02:42:08;;;;;;;;;3.00;3.00;;;;;20.66;72.70;101778.53;4995792;28;50033;-65
2022/05/18 02:44:33;;;;;;;;;3.00;3.00;;;;;20.58;72.29;101775.91;4996165;28;50117;-69
2022/05/18 02:46:59;;;;;;;;;3.25;2.00;;;;;20.54;72.35;101783.91;4995768;28;50444;-65
2022/05/18 02:49:26;;;;;;;;;4.00;4.00;;;;;20.47;72.36;101775.06;4995732;28;49857;-69
2022/05/18 02:51:51;;;;;;;;;2.00;2.00;;;;;20.49;72.99;101791.06;4996123;28;49673;-65
2022/05/18 02:57:03;;;;;;;;;1.25;1.25;;;;;20.31;73.81;101767.97;4995703;28;49752;-65
2022/05/18 02:59:28;;;;;;;;;6.00;4.50;;;;;20.44;73.78;101788.38;4995643;28;49915;-66
2022/05/18 03:01:54;;;;;;;;;3.25;3.00;;;;;20.44;73.72;101782.16;4994615;28;49812;-65
2022/05/18 03:04:19;;;;;;;;;4.25;2.75;;;;;20.31;74.50;101762.63;4995401;28;49523;-66
2022/05/18 03:06:45;;;;;;;;;4.00;4.00;;;;;20.41;74.57;101785.72;4995446;28;50422;-69
2022/05/18 03:09:10;;;;;;;;;7.00;5.50;;;;;20.43;74.30;101791.97;4995239;28;50247;-64
2022/05/18 03:11:36;;;;;;;;;5.50;5.00;;;;;20.35;74.31;101792.84;4995458;28;49675;-64
2022/05/18 03:14:01;;;;;;;;;4.25;4.25;;;;;19.96;74.15;101741.41;4995461;28;49863;-65
2022/05/18 03:16:27;;;;;;;;;5.50;5.50;;;;;20.26;73.67;101793.75;4995403;28;49726;-65
2022/05/18 03:18:53;;;;;;;;;4.00;4.00;;;;;20.22;72.55;101803.53;4995382;28;49849;-65
2022/05/18 03:24:03;;;;;;;;;2.00;2.00;;;;;19.93;71.52;101795.59;4995500;28;49588;-64
2022/05/18 03:26:29;;;;;;;;;2.00;2.00;;;;;19.95;71.18;101803.59;4995031;28;49637;-65
2022/05/18 03:28:56;;;;;;;;;2.75;2.75;;;;;19.88;71.01;101797.41;4995290;28;50209;-69
2022/05/18 03:31:23;;;;;;;;;1.00;1.00;;;;;19.78;70.64;101789.38;4995274;28;49762;-65
2022/05/18 03:33:49;;;;;;;;;1.75;1.75;;;;;19.84;70.67;101819.59;4995393;28;49861;-65
2022/05/18 03:36:17;;;;;;;;;3.00;3.00;;;;;19.80;70.98;101820.50;4994653;28;49754;-70
2022/05/18 03:38:44;;;;;;;;;4.00;4.00;;;;;19.75;71.50;101824.91;4995038;28;49697;-67
2022/05/18 03:41:09;;;;;;;;;4.00;2.75;;;;;19.63;71.58;101806.28;4994856;28;49775;-64
2022/05/18 03:43:36;;;;;;;;;3.50;2.25;;;;;19.75;72.01;101824.91;4995239;28;49805;-68
2022/05/18 03:46:02;;;;;;;;;3.50;3.50;;;;;19.74;72.19;101831.13;4995084;28;50671;-68
2022/05/18 03:48:29;;;;;;;;;4.00;4.00;;;;;19.33;72.30;101762.75;4994971;28;49772;-65
2022/05/18 03:50:57;;;;;;;;;3.75;3.75;;;;;19.70;72.87;101842.69;4994698;28;49840;-66
2022/05/18 03:53:22;;;;;;;;;5.00;3.25;;;;;19.66;73.56;101841.78;4995001;28;49883;-66
2022/05/18 03:55:48;;;;;;;;;3.50;3.50;;;;;19.63;73.33;101840.91;4994747;28;49756;-66
2022/05/18 03:58:14;;;;;;;;;2.25;2.25;;;;;19.55;73.46;101829.31;4994844;28;49757;-65
2022/05/18 04:00:41;;;;;;;;;6.50;4.75;;;;;19.68;73.56;101847.09;4994799;28;49702;-67
2022/05/18 04:03:08;;;;;;;;;4.00;3.50;;;;;19.65;73.32;101850.66;4995031;28;49793;-65
2022/05/18 04:05:33;;;;;;;;;5.75;4.00;;;;;19.53;73.08;101841.75;4994095;28;49765;-67
2022/05/18 04:08:00;;;;;;;;;3.00;1.00;;;;;19.61;72.67;101859.56;4994535;28;49719;-65
2022/05/18 04:10:25;;;;;;;;;3.00;2.00;;;;;19.60;72.30;101859.56;4994661;28;49543;-66
2022/05/18 04:12:50;;;;;;;;;1.75;1.50;;;;;19.49;72.13;101847.94;4994791;28;49797;-65
2022/05/18 04:15:16;;;;;;;;;2.25;2.00;;;;;19.58;71.86;101859.53;4994444;28;50761;-71
2022/05/18 04:17:44;;;;;;;;;2.00;2.00;;;;;19.37;71.52;101844.38;4994569;28;49793;-66
2022/05/18 04:20:15;;;;;;;;;2.75;2.75;;;;;19.43;71.73;101855.06;4994669;28;49844;-65
2022/05/18 04:22:40;;;;;;;;;1.00;1.00;;;;;19.41;71.55;101856.84;4994512;28;49892;-65
2022/05/18 04:25:06;;;;;;;;;2.00;2.00;;;;;19.42;71.33;101855.94;4987063;28;50179;-69
2022/05/18 04:27:32;;;;;;;;;1.50;1.50;;;;;19.25;71.21;101838.16;4994371;28;49668;-65
2022/05/18 04:29:57;;;;;;;;;2.50;2.50;;;;;19.33;71.23;101847.06;4994425;28;50056;-65
2022/05/18 04:32:24;;;;;;;;;1.50;1.50;;;;;19.42;70.89;101863.94;4994439;28;49870;-65
2022/05/18 04:34:50;;;;;;;;;2.25;1.00;;;;;19.42;70.78;101855.94;4993948;28;49588;-66
2022/05/18 04:37:16;;;;;;;;;4.00;3.00;;;;;19.24;70.52;101845.25;4994051;28;49805;-66
2022/05/18 04:39:41;;;;;;;;;2.00;2.00;;;;;19.38;70.15;101872.78;4994290;28;49781;-65
2022/05/18 04:42:07;;;;;;;;;3.25;3.25;;;;;19.36;70.30;101882.56;4994406;28;50039;-65
2022/05/18 04:44:32;;;;;;;;;3.00;2.00;;;;;19.19;70.49;101860.31;4994052;28;49804;-65
2022/05/18 04:46:58;;;;;;;;;1.00;1.00;;;;;18.76;70.43;101791.00;4993978;28;49753;-65
2022/05/18 04:49:25;;;;;;;;;1.50;1.50;;;;;19.37;70.08;101899.41;4994188;28;49741;-65
2022/05/18 04:51:51;;;;;;;;;1.00;1.00;;;;;19.31;70.02;101889.66;4994632;28;49807;-65
2022/05/18 04:54:17;;;;;;;;;1.00;1.00;;;;;19.35;69.72;101903.84;4993880;28;50602;-64
2022/05/18 04:56:42;;;;;;;;;2.00;2.00;;;;;19.20;69.90;101877.16;4993988;28;49803;-65
2022/05/18 04:59:07;;;;;;;;;1.50;1.50;;;;;19.28;69.73;101892.28;4994107;28;50261;-67
2022/05/18 05:01:34;;;;;;;;;0.75;0.75;;;;;19.26;69.53;101896.72;4994187;28;49706;-66
2022/05/18 05:04:00;;;;;;;;;2.00;2.00;;;;;19.36;69.33;101898.53;4993351;28;50857;-65
2022/05/18 05:06:25;;;;;;;;;2.00;1.00;;;;;19.34;69.68;101902.97;4993654;28;50038;-65
2022/05/18 05:08:50;;;;;;;;;2.00;2.00;;;;;19.19;69.51;101878.06;4993918;28;49942;-66
2022/05/18 05:11:16;;;;;;;;;3.00;3.00;;;;;19.37;69.53;101910.06;4993996;28;49895;-66
2022/05/18 05:13:41;;;;;;;;;2.00;2.00;;;;;19.38;69.64;101906.50;4993618;28;50846;-66
2022/05/18 05:16:09;;;;;;;;;2.00;2.00;;;;;19.37;69.50;101915.38;4993675;28;49570;-68
2022/05/18 05:18:35;;;;;;;;;2.00;2.00;;;;;19.39;69.38;101917.16;4987563;28;49848;-67
2022/05/18 05:21:01;;;;;;;;;3.25;3.00;;;;;19.43;69.29;101918.97;4987182;28;49809;-65
2022/05/18 05:23:27;;;;;;;;;2.75;2.75;;;;;19.42;69.17;101925.19;4993308;28;50353;-65
2022/05/18 05:25:55;;;;;;;;;2.00;2.00;;;;;19.35;69.50;101918.06;4993765;28;49722;-66
2022/05/18 05:28:21;;;;;;;;;3.00;3.00;;;;;19.48;69.21;101942.03;4993351;28;49864;-65
2022/05/18 05:30:46;;;;;;;;;5.75;4.75;;;;;19.38;68.99;101917.16;4993259;28;49716;-69
2022/05/18 05:33:11;;;;;;;;;3.00;3.00;;;;;19.43;69.01;101918.97;4993362;28;51001;-68
2022/05/18 05:35:41;;;;;;;;;4.25;3.00;;;;;19.65;68.77;101937.69;4993111;28;49834;-67
2022/05/18 05:38:06;;;;;;;;;3.75;3.75;;;;;19.66;68.62;101944.78;4993479;28;50398;-65
2022/05/18 05:40:32;;;;;;;;;5.00;3.00;;;;;19.64;68.36;101919.94;4992575;28;49857;-68
2022/05/18 05:42:57;;;;;;;;;4.00;2.50;;;;;19.59;67.96;101911.03;4994025;28;49771;-76
2022/05/18 05:45:23;;;;;;;;;3.50;2.50;;;;;19.72;67.62;101919.06;4994139;28;49808;-66
2022/05/18 05:47:48;;;;;;;;;2.00;2.00;;;;;19.91;67.72;101933.31;4993622;28;49557;-70
2022/05/18 05:50:14;;;;;;;;;10.25;6.25;;;;;20.01;67.44;101953.75;4994095;28;49673;-73
2022/05/18 05:52:39;;;;;;;;;3.50;3.50;;;;;20.00;66.54;101940.41;4993139;28;49823;-72
2022/05/18 05:55:06;;;;;;;;;5.00;3.50;;;;;20.15;66.51;101947.50;4993500;28;49797;-67
2022/05/18 05:57:31;;;;;;;;;2.25;2.25;;;;;20.20;66.20;101956.41;4993319;28;49897;-67
2022/05/18 05:59:57;;;;;;;;;2.75;2.75;;;;;20.21;65.71;101947.53;4975731;28;50106;-68
2022/05/18 06:02:23;;;;;;;;;2.50;1.00;;;;;20.29;64.82;101965.31;4991814;28;49801;-68
2022/05/18 06:04:49;;;;;;;;;1.75;1.75;;;;;20.22;65.41;101944.84;4991678;28;49876;-68
2022/05/18 06:07:14;;;;;;;;;5.00;2.75;;;;;20.22;64.88;101957.31;4991544;28;49813;-67
2022/05/18 06:09:41;;;;;;;;;3.25;2.00;;;;;20.17;64.29;101949.31;4992091;28;49754;-66
2022/05/18 06:12:07;;;;;;;;;1.00;1.00;;;;;20.09;64.48;101944.88;4993944;28;50402;-67
2022/05/18 06:14:33;;;;;;;;;1.75;1.50;;;;;20.23;64.36;101962.63;4991680;28;49722;-66
2022/05/18 06:16:58;;;;;;;;;1.50;1.50;;;;;19.95;64.42;101931.50;4987531;28;49742;-68
2022/05/18 06:19:23;;;;;;;;;2.00;2.00;;;;;19.89;63.56;101947.53;4992359;28;49624;-67
2022/05/18 06:21:50;;;;;;;;;2.75;1.25;;;;;19.95;64.32;101971.50;4992510;28;49872;-66
2022/05/18 06:24:16;;;;;;;;;2.50;1.25;;;;;19.89;64.74;101974.16;4992549;28;49773;-65
2022/05/18 06:26:42;;;;;;;;;1.75;1.75;;;;;20.00;64.15;101975.06;4992903;28;49624;-67
2022/05/18 06:29:07;;;;;;;;;1.00;1.00;;;;;20.00;63.95;101940.41;4992303;28;49947;-66
2022/05/18 06:31:33;;;;;;;;;1.75;1.75;;;;;19.87;63.15;101918.16;4995605;28;50416;-67
2022/05/18 06:33:58;;;;;;;;;1.00;1.00;;;;;19.71;63.36;101917.28;4992469;28;49857;-66
2022/05/18 06:36:24;;;;;;;;;0.25;0.25;;;;;19.95;63.93;101968.81;4994979;28;49860;-68
2022/05/18 06:38:49;;;;;;;;;3.50;1.00;;;;;19.73;63.54;101944.81;4991384;28;49895;-67
2022/05/18 06:41:24;;;;;;;;;2.50;2.00;;;;;19.94;63.84;101967.94;4992096;28;51027;-68
2022/05/18 06:43:58;;;;;;;;;1.25;1.25;;;;;20.09;63.73;101976.84;4990108;28;49782;-66
2022/05/18 06:46:26;;;;;;;;;0.00;0.00;;;;;19.96;63.63;101982.16;4991349;28;49754;-67
2022/05/18 06:48:55;;;;;;;;;2.00;2.00;;;;;19.73;63.26;101941.25;4994277;28;50051;-74
2022/05/18 06:51:24;;;;;;;;;1.75;1.75;;;;;20.09;63.44;101968.84;4994978;28;49797;-69
2022/05/18 06:53:54;;;;;;;;;2.00;2.00;;;;;20.18;63.29;101960.88;4995221;28;49686;-68
2022/05/18 06:56:21;;;;;;;;;2.00;1.00;;;;;20.35;63.04;101972.41;4995032;28;49940;-68
2022/05/18 06:58:48;;;;;;;;;1.00;1.00;;;;;20.48;63.09;101958.22;4991988;28;49943;-66
2022/05/18 07:01:13;;;;;;;;;1.25;1.25;;;;;20.44;62.57;101964.44;4995095;28;50461;-70
2022/05/18 07:03:39;;;;;;;;;1.00;1.00;;;;;20.43;62.33;101964.44;4995002;28;49825;-69
2022/05/18 07:06:05;;;;;;;;;1.00;1.00;;;;;20.52;61.64;101959.97;4994360;28;49693;-70
2022/05/18 07:08:30;;;;;;;;;2.75;1.00;;;;;20.51;62.33;101958.19;4994838;28;49929;-70
2022/05/18 07:10:56;;;;;;;;;0.00;0.00;;;;;20.59;61.30;101952.88;4961597;28;49791;-70
2022/05/18 07:13:21;;;;;;;;;1.25;1.25;;;;;20.66;61.73;101945.75;4994662;28;50167;-69
2022/05/18 07:15:47;;;;;;;;;3.00;3.00;;;;;20.72;61.72;101930.59;4995254;28;49748;-68
2022/05/18 07:18:14;;;;;;;;;2.00;2.00;;;;;20.85;60.91;101942.13;4994933;28;50093;-69
2022/05/18 07:20:39;;;;;;;;;3.00;1.25;;;;;20.92;60.86;101959.88;4993388;28;49991;-70
2022/05/18 07:23:05;;;;;;;;;2.00;1.00;;;;;20.92;60.64;101962.56;4992768;28;49749;-69
2022/05/18 07:25:30;;;;;;;;;2.25;2.25;;;;;20.91;60.98;101959.91;4994946;28;49813;-71
2022/05/18 07:27:55;;;;;;;;;1.50;1.00;;;;;20.88;61.14;101954.59;4994853;28;49701;-71
2022/05/18 07:30:21;;;;;;;;;1.00;1.00;;;;;20.63;61.26;101922.59;4994498;28;49683;-71
2022/05/18 07:32:46;;;;;;;;;2.00;1.50;;;;;21.04;61.67;101962.53;4993913;28;49806;-71
2022/05/18 07:35:12;;;;;;;;;0.50;0.50;;;;;20.86;61.13;101930.56;4994660;28;50136;-71
2022/05/18 07:37:38;;;;;;;;;4.00;2.00;;;;;20.83;61.58;101938.56;4993439;28;49700;-71
2022/05/18 07:40:05;;;;;;;;;0.00;0.00;;;;;20.98;60.91;101957.22;4994748;28;49874;-71
2022/05/18 07:42:30;;;;;;;;;2.00;1.00;;;;;21.05;61.19;101961.66;4994592;28;49777;-70
2022/05/18 07:44:56;;;;;;;;;2.50;2.00;;;;;21.01;61.16;101951.84;4994495;28;50236;-70
2022/05/18 07:47:31;;;;;;;;;3.00;2.00;;;;;20.65;60.42;101872.78;4988331;28;49850;-71
2022/05/18 07:49:57;;;;;;;;;1.00;1.00;;;;;21.29;60.37;101965.13;4994222;28;50333;-72
2022/05/18 07:52:22;;;;;;;;;1.25;1.25;;;;;21.21;60.47;101964.25;4993744;28;49746;-71
2022/05/18 07:54:48;;;;;;;;;1.50;1.50;;;;;20.94;60.49;101902.06;4994443;28;49852;-72
2022/05/18 07:57:15;;;;;;;;;2.00;2.00;;;;;21.04;60.08;101900.25;4969772;28;50853;-71
2022/05/18 07:59:40;;;;;;;;;0.75;0.75;;;;;21.52;58.70;101963.25;4992786;28;51366;-71
2022/05/18 08:02:06;;;;;;;;;3.00;3.00;;;;;21.62;59.51;101953.41;4994356;28;49882;-71
2022/05/18 08:04:32;;;;;;;;;1.50;1.00;;;;;21.52;59.21;101923.19;4993985;28;49765;-72
2022/05/18 08:06:57;;;;;;;;;1.75;1.75;;;;;21.90;58.59;101956.75;4993083;28;49683;-70
2022/05/18 08:09:22;;;;;;;;;2.00;2.00;;;;;21.80;58.63;101923.88;4993904;28;50014;-70
2022/05/18 08:17:18;;;;;;;;;2.75;2.75;;;;;21.92;57.30;101883.69;4994319;28;49765;-71
2022/05/18 08:19:43;;;;;;;;;1.50;1.50;;;;;22.39;57.75;101935.91;4993312;28;50484;-71
2022/05/18 08:22:09;;;;;;;;;2.25;2.25;;;;;22.45;56.92;101938.50;4993811;28;49868;-69
2022/05/18 08:24:36;;;;;;;;;1.25;1.25;;;;;22.36;57.32;101935.03;4994136;28;49761;-70
2022/05/18 08:27:06;;;;;;;;;3.00;2.25;;;;;22.58;57.24;101941.94;4994594;28;49916;-70
2022/05/18 08:29:31;;;;;;;;;1.25;1.25;;;;;22.75;57.19;101956.03;4993543;28;49714;-68
2022/05/18 08:31:58;;;;;;;;;2.00;2.00;;;;;22.93;56.81;101954.09;4991353;28;49939;-72
2022/05/18 08:34:23;;;;;;;;;2.75;2.75;;;;;22.87;56.31;101911.31;4992164;28;49802;-75
2022/05/18 08:36:49;;;;;;;;;2.25;2.25;;;;;23.18;56.13;101934.16;4988508;28;49872;-74
2022/05/18 08:39:15;;;;;;;;;1.00;1.00;;;;;23.05;55.72;101895.91;4992350;28;50840;-75
2022/05/18 08:41:47;;;;;;;;;3.75;2.25;;;;;22.84;55.18;101856.91;4992272;28;49760;-77
2022/05/18 08:44:34;;;;;;;;;3.00;3.00;;;;;23.39;56.05;101928.53;4993685;28;50024;-74
2022/05/18 08:47:17;;;;;;;;;1.50;1.50;;;;;23.40;55.22;101942.81;4993865;28;49711;-74
2022/05/18 08:49:56;;;;;;;;;2.25;2.25;;;;;23.50;55.69;101947.13;4991440;28;50078;-75
2022/05/18 08:52:37;;;;;;;;;3.00;2.75;;;;;23.36;56.13;101941.97;4993541;28;49683;-74
2022/05/18 08:55:18;;;;;;;;;1.75;1.75;;;;;23.45;55.84;101940.97;4993630;28;49848;-74
2022/05/18 08:57:48;;;;;;;;;3.00;3.00;;;;;23.54;55.57;101937.25;4993408;28;49551;-72
2022/05/18 09:00:21;;;;;;;;;3.25;2.00;;;;;23.23;55.35;101854.63;4993218;28;49855;-70
2022/05/18 09:02:59;;;;;;;;;3.75;2.50;;;;;23.56;55.51;101928.28;4992378;28;49764;-72
2022/05/18 09:05:43;;;;;;;;;2.00;1.00;;;;;23.73;55.86;101930.72;4993326;28;49710;-72
2022/05/18 09:08:16;;;;;;;;;2.00;2.00;;;;;23.62;55.11;101925.53;4993479;28;49794;-72
2022/05/18 09:10:52;;;;;;;;;2.75;2.75;;;;;22.48;54.83;101732.44;4993052;28;51121;-72
2022/05/18 09:13:20;;;;;;;;;2.75;2.75;;;;;23.46;55.77;101918.63;4975946;28;49779;-71
2022/05/18 09:15:57;;;;;;;;;3.00;2.00;;;;;23.42;55.48;101904.34;4993718;28;49974;-72
2022/05/18 09:18:45;;;;;;;;;2.75;2.25;;;;;23.61;55.92;101923.75;4993716;28;49999;-72
2022/05/18 09:21:25;;;;;;;;;5.00;3.50;;;;;23.58;55.79;101936.31;4993125;28;49745;-70
2022/05/18 09:24:05;;;;;;;;;1.00;1.00;;;;;22.89;55.80;101813.16;4975614;28;49741;-71
2022/05/18 09:26:55;;;;;;;;;1.00;1.00;;;;;23.74;56.05;101928.94;4993653;28;49749;-72
2022/05/18 09:30:10;;;;;;;;;3.00;2.75;;;;;23.59;56.36;101930.06;4987854;28;49900;-71
2022/05/18 09:32:59;;;;;;;;;3.00;3.00;;;;;23.02;56.97;101798.69;4913710;28;50581;-73
2022/05/18 09:35:37;;;;;;;;;3.50;3.00;;;;;23.77;56.39;101920.88;4913597;28;49855;-71
2022/05/18 09:38:11;;;;;;;;;5.00;5.00;;;;;23.57;56.94;101915.78;4971306;28;49770;-71
2022/05/18 09:40:46;;;;;;;;;3.00;3.00;;;;;23.57;56.87;101894.34;4993596;28;49760;-71
2022/05/18 09:43:26;;;;;;;;;3.00;3.00;;;;;23.27;56.66;101804.56;4993024;28;50529;-70
2022/05/18 09:45:53;;;;;;;;;4.00;2.75;;;;;23.88;56.39;101910.84;4988416;28;49861;-71
2022/05/18 09:48:44;;;;;;;;;3.00;3.00;;;;;23.74;56.60;101903.03;4975373;28;49675;-71
2022/05/18 09:51:10;;;;;;;;;5.00;3.75;;;;;23.58;56.85;101880.91;4993200;28;49828;-73
2022/05/18 09:53:38;;;;;;;;;2.25;2.25;;;;;22.82;56.21;101724.84;4993256;28;49702;-71
2022/05/18 09:56:11;;;;;;;;;2.00;2.00;;;;;23.83;56.46;101877.84;4975460;28;49729;-73
2022/05/18 09:58:39;;;;;;;;;4.00;4.00;;;;;24.09;56.83;101899.75;4993032;28;49849;-71
2022/05/18 10:09:49;;;;;;;;;3.00;3.00;;;;;23.93;54.67;101826.75;4992983;28;49825;-72
2022/05/18 10:12:26;;;;;;;;;3.00;3.00;;;;;24.22;55.17;101884.31;4993147;28;49797;-74
2022/05/18 10:14:59;;;;;;;;;5.00;4.00;;;;;24.04;55.23;101844.44;4992589;28;49795;-74
2022/05/18 10:17:32;;;;;;;;;4.75;4.75;;;;;24.30;54.64;101886.88;4992915;28;49871;-71
2022/05/18 10:20:11;;;;;;;;;3.25;3.25;;;;;24.23;54.14;101870.03;4992753;28;49939;-73
2022/05/18 10:22:40;;;;;;;;;3.50;3.50;;;;;;;;4969083;28;50072;-74
2022/05/18 10:25:11;;;;;;;;;2.75;2.75;;;;;23.56;54.32;101754.06;4996228;28;50418;-75
2022/05/18 10:27:44;;;;;;;;;3.00;3.00;;;;;24.40;54.88;101858.97;4990626;28;49821;-72
2022/05/18 10:30:19;;;;;;;;;2.25;2.25;;;;;24.40;54.46;101878.66;4996182;28;49682;-73
2022/05/18 10:33:31;;;;;;;;;3.25;3.25;;;;;24.21;55.17;101818.16;4996324;28;50053;-74
2022/05/18 10:36:06;;;;;;;;;5.75;5.75;;;;;24.51;54.58;101855.19;4963796;28;50988;-74
2022/05/18 10:38:34;;;;;;;;;4.00;4.00;;;;;24.37;54.22;101827.72;4996214;28;49697;-75
2022/05/18 10:41:02;;;;;;;;;6.50;5.25;;;;;24.61;54.09;101841.56;4995955;28;49852;-72
2022/05/18 10:43:36;;;;;;;;;3.00;3.00;;;;;24.45;53.47;101828.47;4996187;28;49756;-72
2022/05/18 10:46:11;;;;;;;;;5.00;4.75;;;;;24.48;52.72;101792.63;4995756;28;50565;-75
2022/05/18 10:48:37;;;;;;;;;2.50;2.50;;;;;23.42;52.81;101624.78;4995880;28;49804;-72
2022/05/18 10:51:14;;;;;;;;;2.25;2.25;;;;;24.43;53.47;101787.38;4995550;28;49829;-70
2022/05/18 10:53:45;;;;;;;;;2.00;2.00;;;;;24.02;51.94;101699.59;4995444;28;50016;-70
2022/05/18 10:56:27;;;;;;;;;3.50;3.50;;;;;24.89;52.23;101837.38;4995320;28;49773;-78
2022/05/18 10:59:34;;;;;;;;;3.25;3.25;;;;;24.74;51.93;101827.88;4993800;28;49804;-77
2022/05/18 11:02:16;;;;;;;;;3.00;2.25;;;;;24.13;49.88;101676.16;4995381;28;50347;-78
2022/05/18 11:04:55;;;;;;;;;4.25;3.50;;;;;24.87;50.19;101784.63;4991511;28;49760;-76
2022/05/18 11:07:25;;;;;;;;;3.25;1.75;;;;;24.43;49.59;101690.75;4996775;28;49814;-73
2022/05/18 11:09:51;;;;;;;;;3.50;2.75;;;;;24.35;49.30;101707.91;4997220;28;49642;-76
2022/05/18 11:13:09;;;;;;;;;5.25;2.75;;;;;24.20;48.47;101671.53;4980787;28;49619;-74
2022/05/18 11:15:41;;;;;;;;;3.75;2.00;;;;;25.30;48.34;101819.50;4915984;28;49684;-74
2022/05/18 11:18:25;;;;;;;;;2.75;2.75;;;;;25.35;48.15;101825.66;4990340;28;50636;-73
2022/05/18 11:21:44;;;;;;;;;2.00;2.00;;;;;25.26;47.90;101793.59;4989041;28;49674;-70
2022/05/18 11:24:20;;;;;;;;;2.75;2.75;;;;;25.46;47.29;101828.06;4915480;28;49911;-74
2022/05/18 11:27:02;;;;;;;;;3.50;2.75;;;;;25.26;46.80;101780.16;4994584;28;49663;-82
2022/05/18 11:29:33;;;;;;;;;4.00;3.00;;;;;25.55;47.13;101819.78;4994858;28;50814;-72
2022/05/18 11:32:19;;;;;;;;;3.50;3.50;;;;;25.64;47.08;101815.06;4999836;28;49970;-72
2022/05/18 11:35:08;;;;;;;;;4.50;4.00;;;;;25.78;47.32;101832.72;4994716;28;49769;-73
2022/05/18 11:38:01;;;;;;;;;2.75;2.75;;;;;24.93;46.69;101664.53;4994067;28;49760;-73
2022/05/18 11:40:43;;;;;;;;;4.00;4.00;;;;;25.54;47.36;101775.00;4994453;28;50422;-75
2022/05/18 11:43:30;;;;;;;;;3.75;3.75;;;;;25.97;47.35;101804.41;4994927;28;49947;-73
2022/05/18 11:46:07;;;;;;;;;3.00;3.00;;;;;25.52;46.62;101706.97;4995124;28;49642;-72
2022/05/18 11:48:35;;;;;;;;;5.25;4.25;;;;;26.07;46.62;101792.47;4995048;28;49813;-72
2022/05/18 11:51:23;;;;;;;;;4.50;2.00;;;;;26.16;46.28;101792.22;4994632;28;49964;-72
2022/05/18 11:54:00;;;;;;;;;3.25;3.25;;;;;26.21;46.32;101792.97;4994898;28;49752;-73
2022/05/18 11:56:35;;;;;;;;;2.50;2.50;;;;;26.29;44.85;101786.50;4994142;28;49868;-72
2022/05/18 11:59:44;;;;;;;;;3.00;1.00;;;;;26.30;43.85;101794.50;4991429;28;49797;-80